KMVL/MVL METAR and TAF weather

Enter ICAO airport designator
Station Type Date Time Source
KMVL METAR 2020/03/28 12:54 UTC NOAA

KMVL 281254Z AUTO 00000KT 10SM CLR M01/M05 A3015 RMK AO2 SLP219 T10061050


Station Type Date Time Source
KMVL Decoded METAR 2020/03/28 12:54 UTC NOAA

MORRISVILLE STOWE STATE AIRPORT , VT, United States (KMVL) 44-32N 72-37W 223M
Mar 28, 2020 - 08:54 AM EDT / 2020.03.28 1254 UTC
Wind: Calm:0
Visibility: 10 mile(s):0
Sky conditions: clear
Temperature: 30.9 F (-0.6 C)
Dew Point: 23.0 F (-5.0 C)
Relative Humidity: 72%
Pressure (altimeter): 30.15 in. Hg (1020 hPa)
ob: KMVL 281254Z AUTO 00000KT 10SM CLR M01/M05 A3015 RMK AO2 SLP219 T10061050
cycle: 13

Station Type Date Time Source
KMVL TAF UTC NOAA

Error!

Example: see airport list